Time;durP1;ratioP1;P1;durP2;ratioP2;P2;SDS_P1;SDS_P2;PMS_P1;PMS_P2;Temp;Humidity;BMP_temperature;BMP_pressure;BME280_temperature;BME280_humidity;BME280_pressure;Samples;Min_cycle;Max_cycle;Signal;HPM_P1;HPM_P2
2021/07/06 00:01:11;;;;;;;7.00;6.35;;;;;;;;;;5075730;28;20024;-70
2021/07/06 00:03:37;;;;;;;7.57;6.75;;;;;;;;;;5075888;28;20031;-71
2021/07/06 00:06:03;;;;;;;6.75;6.10;;;;;;;;;;5075543;28;20032;-71
2021/07/06 00:08:29;;;;;;;7.35;6.75;;;;;;;;;;5075621;28;20020;-70
2021/07/06 00:10:55;;;;;;;6.82;6.28;;;;;;;;;;5075536;28;20089;-71
2021/07/06 00:13:21;;;;;;;8.43;7.72;;;;;;;;;;5075442;28;20097;-70
2021/07/06 00:15:48;;;;;;;7.88;6.35;;;;;;;;;;5075470;28;20032;-71
2021/07/06 00:18:14;;;;;;;5.93;5.35;;;;;;;;;;5075109;28;20357;-71
2021/07/06 00:20:40;;;;;;;6.18;5.63;;;;;;;;;;5075253;28;20044;-71
2021/07/06 00:23:07;;;;;;;6.53;5.97;;;;;;;;;;5075265;28;20024;-70
2021/07/06 00:25:33;;;;;;;6.47;5.80;;;;;;;;;;5074958;28;20021;-70
2021/07/06 00:28:00;;;;;;;6.65;6.05;;;;;;;;;;5074930;28;20466;-70
2021/07/06 00:30:26;;;;;;;6.53;5.97;;;;;;;;;;5074927;28;20062;-71
2021/07/06 00:32:52;;;;;;;6.80;6.20;;;;;;;;;;5075357;28;20017;-71
2021/07/06 00:35:18;;;;;;;7.05;6.35;;;;;;;;;;5074130;28;20020;-71
2021/07/06 00:37:44;;;;;;;7.90;6.18;;;;;;;;;;5075560;28;20064;-72
2021/07/06 00:40:11;;;;;;;6.40;5.78;;;;;;;;;;5074920;28;20017;-72
2021/07/06 00:42:41;;;;;;;9.00;6.13;;;;;;;;;;5075272;28;20025;-72
2021/07/06 00:45:07;;;;;;;7.35;6.60;;;;;;;;;;5075010;28;20073;-71
2021/07/06 00:47:34;;;;;;;5.95;5.45;;;;;;;;;;5074225;28;20058;-72
2021/07/06 00:50:00;;;;;;;6.07;5.43;;;;;;;;;;5074698;28;20016;-71
2021/07/06 00:52:26;;;;;;;6.20;5.57;;;;;;;;;;5074607;28;20044;-71
2021/07/06 00:54:53;;;;;;;6.68;6.07;;;;;;;;;;5074578;28;20239;-72
2021/07/06 00:57:28;;;;;;;8.02;6.70;;;;;;;;;;5074252;28;20016;-72
2021/07/06 00:59:55;;;;;;;6.25;5.68;;;;;;;;;;5074450;28;20028;-72
2021/07/06 01:02:21;;;;;;;7.28;6.53;;;;;;;;;;5074096;28;20017;-72
2021/07/06 01:04:47;;;;;;;6.80;6.07;;;;;;;;;;5074477;28;20074;-72
2021/07/06 01:07:13;;;;;;;7.88;6.63;;;;;;;;;;5074127;28;20027;-71
2021/07/06 01:09:39;;;;;;;7.50;6.80;;;;;;;;;;5074292;28;20024;-72
2021/07/06 01:12:06;;;;;;;8.05;6.57;;;;;;;;;;5074256;28;20048;-72
2021/07/06 01:14:32;;;;;;;6.35;5.85;;;;;;;;;;5074257;28;20056;-71
2021/07/06 01:16:58;;;;;;;6.40;5.82;;;;;;;;;;5074061;28;20047;-72
2021/07/06 01:19:26;;;;;;;6.15;5.65;;;;;;;;;;5073944;28;20040;-72
2021/07/06 01:21:52;;;;;;;6.65;6.03;;;;;;;;;;5074278;28;20039;-72
2021/07/06 01:24:18;;;;;;;7.72;6.22;;;;;;;;;;5074640;28;20028;-72
2021/07/06 01:26:44;;;;;;;6.82;6.28;;;;;;;;;;5074317;28;20012;-73
2021/07/06 01:29:10;;;;;;;7.03;6.30;;;;;;;;;;5073949;28;20024;-73
2021/07/06 01:31:36;;;;;;;6.68;6.07;;;;;;;;;;5073680;28;20054;-73
2021/07/06 01:34:02;;;;;;;6.78;6.18;;;;;;;;;;5074566;28;20213;-73
2021/07/06 01:36:28;;;;;;;7.28;6.68;;;;;;;;;;5073995;28;20029;-72
2021/07/06 01:38:55;;;;;;;9.65;7.25;;;;;;;;;;5073665;28;20032;-73
2021/07/06 01:41:21;;;;;;;6.43;5.78;;;;;;;;;;5073736;28;20020;-73
2021/07/06 01:43:47;;;;;;;5.97;5.05;;;;;;;;;;5073879;28;20027;-72
2021/07/06 01:46:13;;;;;;;6.72;6.03;;;;;;;;;;5072802;28;20082;-72
2021/07/06 01:48:39;;;;;;;6.13;5.63;;;;;;;;;;5073809;28;20446;-72
2021/07/06 01:51:05;;;;;;;7.15;6.47;;;;;;;;;;5073694;28;20349;-73
2021/07/06 01:53:31;;;;;;;6.72;6.22;;;;;;;;;;5073464;28;20028;-72
2021/07/06 01:55:57;;;;;;;7.00;6.28;;;;;;;;;;5073680;28;20013;-72
2021/07/06 01:58:25;;;;;;;6.65;5.63;;;;;;;;;;5073505;28;20032;-71
2021/07/06 02:00:54;;;;;;;8.73;6.28;;;;;;;;;;5073406;28;20024;-72
2021/07/06 02:03:20;;;;;;;10.65;6.25;;;;;;;;;;5073610;28;20020;-72
2021/07/06 02:05:47;;;;;;;7.85;6.07;;;;;;;;;;5074052;28;20042;-71
2021/07/06 02:08:14;;;;;;;6.90;6.20;;;;;;;;;;5074041;28;20091;-71
2021/07/06 02:10:40;;;;;;;7.13;6.53;;;;;;;;;;5073599;28;20454;-71
2021/07/06 02:13:10;;;;;;;9.52;6.57;;;;;;;;;;5073815;28;20021;-71
2021/07/06 02:15:36;;;;;;;7.07;6.47;;;;;;;;;;5073655;28;20385;-72
2021/07/06 02:18:03;;;;;;;8.10;7.38;;;;;;;;;;5074134;28;20059;-71
2021/07/06 02:20:29;;;;;;;7.95;6.80;;;;;;;;;;5073671;28;20039;-72
2021/07/06 02:22:55;;;;;;;8.30;6.07;;;;;;;;;;5073855;28;20017;-72
2021/07/06 02:25:21;;;;;;;6.70;6.07;;;;;;;;;;5073183;28;20025;-73
2021/07/06 02:27:48;;;;;;;6.43;5.93;;;;;;;;;;5073136;28;20020;-73
2021/07/06 02:30:15;;;;;;;7.05;6.45;;;;;;;;;;5073321;28;20112;-73
2021/07/06 02:32:41;;;;;;;6.22;5.72;;;;;;;;;;5073893;28;20400;-73
2021/07/06 02:35:08;;;;;;;8.60;6.95;;;;;;;;;;5073396;28;20016;-73
2021/07/06 02:37:34;;;;;;;7.75;5.97;;;;;;;;;;5072699;28;20344;-72
2021/07/06 02:40:00;;;;;;;10.77;6.75;;;;;;;;;;5073358;28;20023;-71
2021/07/06 02:42:26;;;;;;;7.97;6.15;;;;;;;;;;5073197;28;20016;-71
2021/07/06 02:44:52;;;;;;;7.03;6.43;;;;;;;;;;5073085;28;20020;-72
2021/07/06 02:47:18;;;;;;;8.82;6.88;;;;;;;;;;5072981;28;20052;-72
2021/07/06 02:49:44;;;;;;;12.80;6.25;;;;;;;;;;5073046;28;20024;-72
2021/07/06 02:52:10;;;;;;;7.70;5.80;;;;;;;;;;5073181;28;20058;-71
2021/07/06 02:54:36;;;;;;;7.82;7.03;;;;;;;;;;5073175;28;20021;-73
2021/07/06 02:57:07;;;;;;;13.13;5.28;;;;;;;;;;5073279;28;20023;-73
2021/07/06 02:59:33;;;;;;;7.70;6.22;;;;;;;;;;5076824;28;20027;-73
2021/07/06 03:01:59;;;;;;;6.25;5.70;;;;;;;;;;5077724;28;20458;-73
2021/07/06 03:04:25;;;;;;;7.97;5.40;;;;;;;;;;5077292;28;20021;-72
2021/07/06 03:06:52;;;;;;;7.07;5.82;;;;;;;;;;5076757;28;20043;-72
2021/07/06 03:09:18;;;;;;;9.60;6.38;;;;;;;;;;5076676;28;20031;-73
2021/07/06 03:11:45;;;;;;;9.23;7.95;;;;;;;;;;5076739;28;20016;-72
2021/07/06 03:14:11;;;;;;;17.23;6.97;;;;;;;;;;5076644;28;20016;-73
2021/07/06 03:16:37;;;;;;;8.18;7.35;;;;;;;;;;5076460;28;20020;-73
2021/07/06 03:19:04;;;;;;;10.77;7.57;;;;;;;;;;5076730;28;20040;-72
2021/07/06 03:21:30;;;;;;;8.63;6.40;;;;;;;;;;5076214;28;20024;-72
2021/07/06 03:23:56;;;;;;;9.07;7.38;;;;;;;;;;5076506;28;20023;-73
2021/07/06 03:26:22;;;;;;;8.43;6.47;;;;;;;;;;5076295;28;20413;-71
2021/07/06 03:28:48;;;;;;;10.10;7.60;;;;;;;;;;5075845;28;20044;-71
2021/07/06 03:31:14;;;;;;;9.18;7.13;;;;;;;;;;5076138;28;20016;-72
2021/07/06 03:33:40;;;;;;;7.72;7.00;;;;;;;;;;5076359;28;20031;-72
2021/07/06 03:36:06;;;;;;;8.70;7.82;;;;;;;;;;5076190;28;20020;-74
2021/07/06 03:38:32;;;;;;;9.10;7.30;;;;;;;;;;5076182;28;20044;-73
2021/07/06 03:40:58;;;;;;;8.55;7.75;;;;;;;;;;5076366;28;20075;-74
2021/07/06 03:43:24;;;;;;;9.27;8.48;;;;;;;;;;5075785;28;20013;-74
2021/07/06 03:45:50;;;;;;;10.77;8.63;;;;;;;;;;5076300;28;20028;-73
2021/07/06 03:48:16;;;;;;;8.88;7.68;;;;;;;;;;5075930;28;20469;-73
2021/07/06 03:50:42;;;;;;;9.98;8.98;;;;;;;;;;5075999;28;20101;-74
2021/07/06 03:53:09;;;;;;;9.50;8.60;;;;;;;;;;5076207;28;20055;-73
2021/07/06 03:55:35;;;;;;;11.40;9.38;;;;;;;;;;5075757;28;20017;-72
2021/07/06 03:58:01;;;;;;;15.00;9.85;;;;;;;;;;5075274;28;20358;-73
2021/07/06 04:00:28;;;;;;;9.68;8.80;;;;;;;;;;5076167;28;20347;-73
2021/07/06 04:02:55;;;;;;;10.80;8.82;;;;;;;;;;5076439;28;20108;-73
2021/07/06 04:05:21;;;;;;;8.85;7.97;;;;;;;;;;5075914;28;20436;-73
2021/07/06 04:07:47;;;;;;;10.95;9.95;;;;;;;;;;5076510;28;20016;-73
2021/07/06 04:10:16;;;;;;;11.55;10.00;;;;;;;;;;5075681;28;20414;-73
2021/07/06 04:12:42;;;;;;;11.02;9.18;;;;;;;;;;5075364;28;20462;-73
2021/07/06 04:15:09;;;;;;;12.15;9.73;;;;;;;;;;5075508;28;20024;-74
2021/07/06 04:17:35;;;;;;;11.98;9.10;;;;;;;;;;5075242;28;20021;-71
2021/07/06 04:20:01;;;;;;;13.43;8.82;;;;;;;;;;5075411;28;20111;-72
2021/07/06 04:22:27;;;;;;;10.85;8.30;;;;;;;;;;5075550;28;20091;-72
2021/07/06 04:24:53;;;;;;;8.55;7.72;;;;;;;;;;5075479;28;20027;-72
2021/07/06 04:27:19;;;;;;;9.88;8.05;;;;;;;;;;5075060;28;20017;-73
2021/07/06 04:29:47;;;;;;;10.55;7.72;;;;;;;;;;5075260;28;20023;-72
2021/07/06 04:32:15;;;;;;;10.75;8.23;;;;;;;;;;5075461;28;20032;-74
2021/07/06 04:34:41;;;;;;;11.50;8.57;;;;;;;;;;5075654;28;20047;-72
2021/07/06 04:37:07;;;;;;;10.32;9.32;;;;;;;;;;5074930;28;20023;-72
2021/07/06 04:39:34;;;;;;;11.93;10.75;;;;;;;;;;5074506;28;20415;-72
2021/07/06 04:42:00;;;;;;;14.15;10.88;;;;;;;;;;5074602;28;20020;-72
2021/07/06 04:44:26;;;;;;;12.82;10.10;;;;;;;;;;5075388;28;20052;-72
2021/07/06 04:46:52;;;;;;;14.05;10.40;;;;;;;;;;5075059;28;20355;-73
2021/07/06 04:49:18;;;;;;;23.05;11.27;;;;;;;;;;5075165;28;20016;-74
2021/07/06 04:51:44;;;;;;;11.57;9.43;;;;;;;;;;5075262;28;20059;-74
2021/07/06 04:54:10;;;;;;;12.48;10.10;;;;;;;;;;5075407;28;20044;-74
2021/07/06 04:56:36;;;;;;;11.63;8.93;;;;;;;;;;5075173;28;20074;-74
2021/07/06 04:59:02;;;;;;;21.98;9.30;;;;;;;;;;5074924;28;20036;-73
2021/07/06 05:01:29;;;;;;;16.48;9.30;;;;;;;;;;5074816;28;20024;-74
2021/07/06 05:03:55;;;;;;;11.90;8.75;;;;;;;;;;5075243;28;20362;-73
2021/07/06 05:06:21;;;;;;;13.82;7.88;;;;;;;;;;5075120;28;20059;-74
2021/07/06 05:08:47;;;;;;;9.10;8.20;;;;;;;;;;5074669;28;20024;-74
2021/07/06 05:11:14;;;;;;;9.68;8.10;;;;;;;;;;5074145;28;20374;-74
2021/07/06 05:13:40;;;;;;;9.80;8.63;;;;;;;;;;5075193;28;20016;-74
2021/07/06 05:16:06;;;;;;;11.75;7.72;;;;;;;;;;5074929;28;20450;-74
2021/07/06 05:18:32;;;;;;;10.40;9.27;;;;;;;;;;5074614;28;20025;-74
2021/07/06 05:20:58;;;;;;;9.98;8.98;;;;;;;;;;5074133;28;20052;-76
2021/07/06 05:23:24;;;;;;;9.80;8.80;;;;;;;;;;5074227;28;20028;-76
2021/07/06 05:25:50;;;;;;;10.43;9.38;;;;;;;;;;5074590;28;20025;-76
2021/07/06 05:28:16;;;;;;;8.85;8.05;;;;;;;;;;5074725;28;20026;-71
2021/07/06 05:30:43;;;;;;;10.30;9.30;;;;;;;;;;5074053;28;20017;-72
2021/07/06 05:33:10;;;;;;;9.80;8.90;;;;;;;;;;5074242;28;20027;-72
2021/07/06 05:35:36;;;;;;;12.00;8.07;;;;;;;;;;5074114;28;20048;-72
2021/07/06 05:38:03;;;;;;;7.93;7.18;;;;;;;;;;5073734;28;20017;-72
2021/07/06 05:40:29;;;;;;;9.48;8.57;;;;;;;;;;5073849;28;20020;-72
2021/07/06 05:42:55;;;;;;;10.80;8.82;;;;;;;;;;5074183;28;20028;-72
2021/07/06 05:45:21;;;;;;;7.63;6.93;;;;;;;;;;5073689;28;20130;-72
2021/07/06 05:47:47;;;;;;;9.30;7.53;;;;;;;;;;5074299;28;20382;-72
2021/07/06 05:50:14;;;;;;;8.48;7.30;;;;;;;;;;5073783;28;20086;-72
2021/07/06 05:52:40;;;;;;;26.45;8.00;;;;;;;;;;5073489;28;20397;-72
2021/07/06 05:55:07;;;;;;;11.02;7.22;;;;;;;;;;5073852;28;20027;-72
2021/07/06 05:57:33;;;;;;;11.25;7.50;;;;;;;;;;5073554;28;20020;-72
2021/07/06 05:59:59;;;;;;;12.35;7.68;;;;;;;;;;5073555;28;20548;-72
2021/07/06 06:02:25;;;;;;;6.78;6.05;;;;;;;;;;5073923;28;20028;-71
2021/07/06 06:04:51;;;;;;;10.15;6.78;;;;;;;;;;5073801;28;20026;-72
2021/07/06 06:07:17;;;;;;;11.65;7.15;;;;;;;;;;5073448;28;20029;-72
2021/07/06 06:09:43;;;;;;;18.00;6.97;;;;;;;;;;5073146;28;20051;-72
2021/07/06 06:12:10;;;;;;;8.15;7.28;;;;;;;;;;5073367;28;20012;-73
2021/07/06 06:14:36;;;;;;;7.88;6.93;;;;;;;;;;5073389;28;20017;-72
2021/07/06 06:17:02;;;;;;;17.55;7.28;;;;;;;;;;5073613;28;20025;-72
2021/07/06 06:19:28;;;;;;;10.38;6.35;;;;;;;;;;5072976;28;20032;-72
2021/07/06 06:21:54;;;;;;;10.90;6.35;;;;;;;;;;5073733;28;20020;-72
2021/07/06 06:24:20;;;;;;;6.90;6.20;;;;;;;;;;5073342;28;20025;-73
2021/07/06 06:26:48;;;;;;;7.28;6.68;;;;;;;;;;5074792;28;20113;-72
2021/07/06 06:29:14;;;;;;;7.78;5.65;;;;;;;;;;5074050;28;20119;-73
2021/07/06 06:31:40;;;;;;;6.78;6.18;;;;;;;;;;5073412;28;20024;-72
2021/07/06 06:34:06;;;;;;;5.85;5.35;;;;;;;;;;5077259;28;20060;-72
2021/07/06 06:36:32;;;;;;;16.25;6.13;;;;;;;;;;5077884;28;20470;-71
2021/07/06 06:39:00;;;;;;;10.65;5.57;;;;;;;;;;5077339;28;20040;-73
2021/07/06 06:41:26;;;;;;;9.57;5.57;;;;;;;;;;5077525;28;20026;-72
2021/07/06 06:43:53;;;;;;;7.80;5.95;;;;;;;;;;5077754;28;20462;-71
2021/07/06 06:46:20;;;;;;;7.97;6.05;;;;;;;;;;5077449;28;20032;-71
2021/07/06 06:48:46;;;;;;;6.90;6.20;;;;;;;;;;5077351;28;20032;-71
2021/07/06 06:51:13;;;;;;;11.18;6.72;;;;;;;;;;5076282;28;20031;-71
2021/07/06 06:53:39;;;;;;;6.07;5.47;;;;;;;;;;5076290;28;20021;-72
2021/07/06 06:56:05;;;;;;;7.53;6.93;;;;;;;;;;5077338;28;20033;-72
2021/07/06 06:58:31;;;;;;;8.90;7.35;;;;;;;;;;5076886;28;20501;-70
2021/07/06 07:00:57;;;;;;;8.20;5.78;;;;;;;;;;5076605;28;20030;-70
2021/07/06 07:03:23;;;;;;;9.50;5.55;;;;;;;;;;5076432;28;20478;-70
2021/07/06 07:05:50;;;;;;;6.20;5.60;;;;;;;;;;5076967;28;20028;-71
2021/07/06 07:08:16;;;;;;;8.77;5.18;;;;;;;;;;5076231;28;20488;-71
2021/07/06 07:10:42;;;;;;;5.95;5.05;;;;;;;;;;5077039;28;20505;-70
2021/07/06 07:13:08;;;;;;;5.93;5.43;;;;;;;;;;5076747;28;20027;-71
2021/07/06 07:15:35;;;;;;;6.95;5.72;;;;;;;;;;5076488;28;20021;-69
2021/07/06 07:18:01;;;;;;;6.38;5.78;;;;;;;;;;5076520;28;20465;-70
2021/07/06 07:20:27;;;;;;;6.20;5.60;;;;;;;;;;5076207;28;20031;-70
2021/07/06 07:22:53;;;;;;;5.90;5.28;;;;;;;;;;5076073;28;20522;-70
2021/07/06 07:25:20;;;;;;;8.27;5.28;;;;;;;;;;5076531;28;20029;-70
2021/07/06 07:27:46;;;;;;;5.43;4.93;;;;;;;;;;5077101;28;20024;-71
2021/07/06 07:30:13;;;;;;;6.70;5.63;;;;;;;;;;5076396;28;20466;-71
2021/07/06 07:32:39;;;;;;;5.75;5.15;;;;;;;;;;5076253;28;20155;-71
2021/07/06 07:35:05;;;;;;;5.88;5.40;;;;;;;;;;5075832;28;20021;-70
2021/07/06 07:37:31;;;;;;;5.60;5.10;;;;;;;;;;5075659;28;20029;-71
2021/07/06 07:39:57;;;;;;;5.43;4.93;;;;;;;;;;5076639;28;20090;-71
2021/07/06 07:42:24;;;;;;;5.68;5.10;;;;;;;;;;5076525;28;20035;-70
2021/07/06 07:44:50;;;;;;;6.32;5.80;;;;;;;;;;5074938;28;20519;-70
2021/07/06 07:47:16;;;;;;;5.13;4.72;;;;;;;;;;5075945;28;20079;-71
2021/07/06 07:49:42;;;;;;;5.72;5.22;;;;;;;;;;5075799;28;20035;-71
2021/07/06 07:52:09;;;;;;;8.18;5.18;;;;;;;;;;5075395;28;20049;-70
2021/07/06 07:54:35;;;;;;;14.15;5.68;;;;;;;;;;5076165;28;20466;-71
2021/07/06 07:57:03;;;;;;;5.90;4.90;;;;;;;;;;5073210;28;20447;-70
2021/07/06 07:59:30;;;;;;;22.55;6.00;;;;;;;;;;5074306;28;20434;-70
2021/07/06 08:01:57;;;;;;;9.13;5.38;;;;;;;;;;5075324;28;20095;-71
2021/07/06 08:04:23;;;;;;;6.97;5.07;;;;;;;;;;5074053;28;20471;-70
2021/07/06 08:06:49;;;;;;;13.13;5.22;;;;;;;;;;5074729;28;20359;-71
2021/07/06 08:09:16;;;;;;;5.55;4.90;;;;;;;;;;5068282;28;20024;-71
2021/07/06 08:11:42;;;;;;;9.98;5.40;;;;;;;;;;5064121;28;20020;-71
2021/07/06 08:14:08;;;;;;;24.63;5.50;;;;;;;;;;5063074;28;20033;-70
2021/07/06 08:16:34;;;;;;;4.88;4.47;;;;;;;;;;5061160;28;20097;-71
2021/07/06 08:19:00;;;;;;;6.88;6.18;;;;;;;;;;5064065;28;20023;-70
2021/07/06 08:21:26;;;;;;;5.25;4.85;;;;;;;;;;5062495;28;20474;-70
2021/07/06 08:23:52;;;;;;;5.20;4.70;;;;;;;;;;5070106;28;20374;-71
2021/07/06 08:26:18;;;;;;;5.50;4.85;;;;;;;;;;5061764;28;20028;-71
2021/07/06 08:28:45;;;;;;;7.20;4.95;;;;;;;;;;5067228;28;20031;-70
2021/07/06 08:31:12;;;;;;;13.13;5.65;;;;;;;;;;5061513;28;20066;-70
2021/07/06 08:33:38;;;;;;;7.15;5.35;;;;;;;;;;5063022;28;20033;-72
2021/07/06 08:36:05;;;;;;;6.43;5.40;;;;;;;;;;5062083;28;20019;-71
2021/07/06 08:38:33;;;;;;;4.80;4.40;;;;;;;;;;5063893;28;20030;-70
2021/07/06 08:40:59;;;;;;;5.38;4.72;;;;;;;;;;5064407;28;20481;-70
2021/07/06 08:43:25;;;;;;;7.90;5.22;;;;;;;;;;5062808;28;20027;-69
2021/07/06 08:45:51;;;;;;;10.77;5.05;;;;;;;;;;5063105;28;20029;-70
2021/07/06 08:48:17;;;;;;;10.32;4.97;;;;;;;;;;5064607;28;20501;-72
2021/07/06 08:50:45;;;;;;;10.73;4.43;;;;;;;;;;5061562;28;20049;-71
2021/07/06 08:53:11;;;;;;;5.40;4.78;;;;;;;;;;5061270;28;20060;-72
2021/07/06 08:55:38;;;;;;;6.72;4.35;;;;;;;;;;5062322;28;20458;-71
2021/07/06 08:58:04;;;;;;;7.65;4.45;;;;;;;;;;5062588;28;20075;-71
2021/07/06 09:00:30;;;;;;;9.60;4.75;;;;;;;;;;5063475;28;20033;-70
2021/07/06 09:03:00;;;;;;;4.90;4.40;;;;;;;;;;5058868;28;20486;-70
2021/07/06 09:05:27;;;;;;;6.05;3.97;;;;;;;;;;5063024;28;20055;-71
2021/07/06 09:07:53;;;;;;;5.00;4.03;;;;;;;;;;5062914;28;20028;-70
2021/07/06 09:10:20;;;;;;;11.57;4.55;;;;;;;;;;5061521;28;20059;-70
2021/07/06 09:12:46;;;;;;;7.13;4.40;;;;;;;;;;5063302;28;20021;-69
2021/07/06 09:15:20;;;;;;;4.65;4.30;;;;;;;;;;5062616;28;20044;-70
2021/07/06 09:17:46;;;;;;;16.95;4.70;;;;;;;;;;5060752;28;20367;-71
2021/07/06 09:20:12;;;;;;;5.18;4.25;;;;;;;;;;5061972;28;20043;-72
2021/07/06 09:22:39;;;;;;;4.65;4.25;;;;;;;;;;5063179;28;20033;-71
2021/07/06 09:25:05;;;;;;;15.60;4.90;;;;;;;;;;5061063;28;20352;-71
2021/07/06 09:27:32;;;;;;;17.42;4.50;;;;;;;;;;5073198;28;20466;-71
2021/07/06 09:30:08;;;;;;;6.95;4.18;;;;;;;;;;5062022;28;20406;-72
2021/07/06 09:32:34;;;;;;;4.20;3.80;;;;;;;;;;5070761;28;20112;-71
2021/07/06 09:35:17;;;;;;;4.80;4.40;;;;;;;;;;5073109;28;20021;-70
2021/07/06 09:37:45;;;;;;;24.40;4.47;;;;;;;;;;5073123;28;20028;-72
2021/07/06 09:40:27;;;;;;;6.05;4.05;;;;;;;;;;5073279;28;20056;-71
2021/07/06 09:43:13;;;;;;;5.57;3.72;;;;;;;;;;5072433;28;20064;-72
2021/07/06 09:45:43;;;;;;;4.65;4.18;;;;;;;;;;5052659;28;20024;-71
2021/07/06 09:48:12;;;;;;;7.50;4.40;;;;;;;;;;5060981;28;20033;-70
2021/07/06 09:50:38;;;;;;;8.23;3.83;;;;;;;;;;5062521;28;20035;-71
2021/07/06 09:53:04;;;;;;;4.05;3.65;;;;;;;;;;5061252;28;20514;-70
2021/07/06 09:55:31;;;;;;;5.35;3.53;;;;;;;;;;5061437;28;20108;-70
2021/07/06 09:57:57;;;;;;;4.00;3.67;;;;;;;;;;5062495;28;20032;-70
2021/07/06 10:00:25;;;;;;;5.88;3.67;;;;;;;;;;5060931;28;20515;-71
2021/07/06 10:02:59;;;;;;;7.68;4.00;;;;;;;;;;5061093;28;20024;-72
2021/07/06 10:05:25;;;;;;;4.97;3.22;;;;;;;;;;5060437;28;20024;-72
2021/07/06 10:07:51;;;;;;;5.13;3.75;;;;;;;;;;5060599;28;20016;-71
2021/07/06 10:10:19;;;;;;;5.88;3.70;;;;;;;;;;5062455;28;20134;-71
2021/07/06 10:12:46;;;;;;;5.53;3.80;;;;;;;;;;5063353;28;20048;-70
2021/07/06 10:15:12;;;;;;;3.60;3.28;;;;;;;;;;5061385;28;20033;-71
2021/07/06 10:17:39;;;;;;;7.95;4.38;;;;;;;;;;5062202;28;20428;-70
2021/07/06 10:20:06;;;;;;;5.55;4.35;;;;;;;;;;5062590;28;20389;-72
2021/07/06 10:22:32;;;;;;;7.68;4.93;;;;;;;;;;5060507;28;20128;-71
2021/07/06 10:24:59;;;;;;;12.98;5.75;;;;;;;;;;5054040;28;20048;-70
2021/07/06 10:27:26;;;;;;;15.40;4.80;;;;;;;;;;5052762;28;20090;-71
2021/07/06 10:30:15;;;;;;;8.13;4.43;;;;;;;;;;5052182;28;20024;-71
2021/07/06 10:32:43;;;;;;;9.93;4.57;;;;;;;;;;5038480;28;20075;-70
2021/07/06 10:35:09;;;;;;;10.68;4.93;;;;;;;;;;5052560;28;20033;-70
2021/07/06 10:37:36;;;;;;;18.00;5.40;;;;;;;;;;5052311;28;20033;-70
2021/07/06 10:40:19;;;;;;;5.68;4.65;;;;;;;;;;5053169;28;20056;-70
2021/07/06 10:42:46;;;;;;;9.25;4.82;;;;;;;;;;5052579;28;20028;-71
2021/07/06 10:45:16;;;;;;;10.27;5.15;;;;;;;;;;5052243;28;20056;-71
2021/07/06 10:47:45;;;;;;;7.00;4.28;;;;;;;;;;5052288;28;20031;-70
2021/07/06 10:50:31;;;;;;;4.88;4.35;;;;;;;;;;5052560;28;20462;-70
2021/07/06 10:53:17;;;;;;;5.22;4.15;;;;;;;;;;5037991;28;20064;-70
2021/07/06 10:55:43;;;;;;;4.07;3.67;;;;;;;;;;5047069;28;20043;-72
2021/07/06 10:58:10;;;;;;;7.75;4.00;;;;;;;;;;5060611;28;20037;-71
2021/07/06 11:00:44;;;;;;;8.13;4.03;;;;;;;;;;5060290;28;20029;-71
2021/07/06 11:03:25;;;;;;;7.78;4.35;;;;;;;;;;5061646;28;20032;-71
2021/07/06 11:05:51;;;;;;;12.05;4.28;;;;;;;;;;5061767;28;20025;-71
2021/07/06 11:08:37;;;;;;;6.63;3.80;;;;;;;;;;5062697;28;20806;-71
2021/07/06 11:11:03;;;;;;;4.57;3.97;;;;;;;;;;5047382;28;20065;-71
2021/07/06 11:13:29;;;;;;;6.70;3.63;;;;;;;;;;5060845;28;20048;-71
2021/07/06 11:15:55;;;;;;;11.80;4.60;;;;;;;;;;5060491;28;20503;-71
2021/07/06 11:18:44;;;;;;;5.07;3.75;;;;;;;;;;5062216;28;20487;-71
2021/07/06 11:21:31;;;;;;;6.25;3.38;;;;;;;;;;5062880;28;20025;-70
2021/07/06 11:24:12;;;;;;;5.82;3.50;;;;;;;;;;5048947;28;20020;-71
2021/07/06 11:26:40;;;;;;;4.65;3.63;;;;;;;;;;5064802;28;20060;-71
2021/07/06 11:29:06;;;;;;;5.65;4.10;;;;;;;;;;5063942;28;20033;-70
2021/07/06 11:31:32;;;;;;;4.15;3.65;;;;;;;;;;5063860;28;20035;-71
2021/07/06 11:34:04;;;;;;;5.78;3.33;;;;;;;;;;5065280;28;20352;-70
2021/07/06 11:36:30;;;;;;;6.90;3.90;;;;;;;;;;5064342;28;20017;-71
2021/07/06 11:38:57;;;;;;;5.53;3.50;;;;;;;;;;5061679;28;20116;-73
2021/07/06 11:41:25;;;;;;;3.60;3.28;;;;;;;;;;5062416;28;20162;-71
2021/07/06 11:43:51;;;;;;;5.40;3.13;;;;;;;;;;5065275;28;20471;-72
2021/07/06 11:46:18;;;;;;;5.70;3.30;;;;;;;;;;5062937;28;20378;-71
2021/07/06 11:48:47;;;;;;;3.28;3.03;;;;;;;;;;5064632;28;20031;-71
2021/07/06 11:51:16;;;;;;;3.47;3.17;;;;;;;;;;5062966;28;20025;-71
2021/07/06 11:53:43;;;;;;;3.78;3.35;;;;;;;;;;5062470;28;20032;-71
2021/07/06 11:56:10;;;;;;;4.22;3.80;;;;;;;;;;5064816;28;20107;-72
2021/07/06 11:58:36;;;;;;;8.15;3.38;;;;;;;;;;5064312;28;20037;-71
2021/07/06 12:01:04;;;;;;;4.63;4.22;;;;;;;;;;5062817;28;20029;-71
2021/07/06 12:03:30;;;;;;;5.78;4.68;;;;;;;;;;5064507;28;20100;-70
2021/07/06 12:05:57;;;;;;;4.68;4.28;;;;;;;;;;5064286;28;20071;-71
2021/07/06 12:08:25;;;;;;;4.65;4.25;;;;;;;;;;5062863;28;20455;-72
2021/07/06 12:10:53;;;;;;;3.95;3.55;;;;;;;;;;5064397;28;20021;-70
2021/07/06 12:13:19;;;;;;;5.47;4.80;;;;;;;;;;5064767;28;20017;-72
2021/07/06 12:15:46;;;;;;;5.43;4.00;;;;;;;;;;5062732;28;20025;-72
2021/07/06 12:18:12;;;;;;;4.75;3.88;;;;;;;;;;5061303;28;20064;-71
2021/07/06 12:20:38;;;;;;;4.60;4.15;;;;;;;;;;5068321;28;20036;-71
2021/07/06 12:23:04;;;;;;;4.55;4.15;;;;;;;;;;5063408;28;20508;-72
2021/07/06 12:25:30;;;;;;;5.93;4.15;;;;;;;;;;5061391;28;20102;-71
2021/07/06 12:27:58;;;;;;;5.75;5.22;;;;;;;;;;5071177;28;20025;-71
2021/07/06 12:30:24;;;;;;;5.03;4.28;;;;;;;;;;5074068;28;20035;-72
2021/07/06 12:33:06;;;;;;;4.22;3.80;;;;;;;;;;5075146;28;20019;-71
2021/07/06 12:35:32;;;;;;;5.07;3.53;;;;;;;;;;5074743;28;20089;-72
2021/07/06 12:38:02;;;;;;;4.85;3.97;;;;;;;;;;5074878;28;20028;-71
2021/07/06 12:40:29;;;;;;;11.40;5.07;;;;;;;;;;5075016;28;20077;-70
2021/07/06 12:42:56;;;;;;;4.38;3.88;;;;;;;;;;5074820;28;20503;-70
2021/07/06 12:45:22;;;;;;;4.80;4.10;;;;;;;;;;5074056;28;20470;-71
2021/07/06 12:47:49;;;;;;;4.30;3.90;;;;;;;;;;5074549;28;20060;-71
2021/07/06 12:50:16;;;;;;;4.95;4.55;;;;;;;;;;5074678;28;20036;-72
2021/07/06 12:52:43;;;;;;;4.60;4.20;;;;;;;;;;5074513;28;20040;-71
2021/07/06 12:55:10;;;;;;;7.18;4.28;;;;;;;;;;5074341;28;20036;-70
2021/07/06 12:57:36;;;;;;;4.35;3.95;;;;;;;;;;5073845;28;20036;-71
2021/07/06 13:00:22;;;;;;;6.97;4.70;;;;;;;;;;5074703;28;20038;-71
2021/07/06 13:03:04;;;;;;;4.60;4.22;;;;;;;;;;5059545;28;20509;-70
2021/07/06 13:05:32;;;;;;;9.88;4.25;;;;;;;;;;5074221;28;20370;-71
2021/07/06 13:07:58;;;;;;;6.93;4.93;;;;;;;;;;5073919;28;20028;-71
2021/07/06 13:10:25;;;;;;;4.35;3.95;;;;;;;;;;5074275;28;20024;-71
2021/07/06 13:12:53;;;;;;;4.82;4.13;;;;;;;;;;5074232;28;20027;-71
2021/07/06 13:15:19;;;;;;;4.82;4.40;;;;;;;;;;5073818;28;20107;-71
2021/07/06 13:17:46;;;;;;;4.00;3.70;;;;;;;;;;5073974;28;20473;-71
2021/07/06 13:20:13;;;;;;;3.85;3.55;;;;;;;;;;5073843;28;20136;-70
2021/07/06 13:22:39;;;;;;;5.15;3.42;;;;;;;;;;5073736;28;20539;-71
2021/07/06 13:25:06;;;;;;;4.95;4.38;;;;;;;;;;5073653;28;20016;-71
2021/07/06 13:27:32;;;;;;;4.18;3.78;;;;;;;;;;5073476;28;20028;-72
2021/07/06 13:29:59;;;;;;;5.95;4.65;;;;;;;;;;5073768;28;20017;-71
2021/07/06 13:32:25;;;;;;;4.25;3.95;;;;;;;;;;5073689;28;20082;-71
2021/07/06 13:34:51;;;;;;;4.10;3.78;;;;;;;;;;5073744;28;20382;-71
2021/07/06 13:37:17;;;;;;;4.05;3.65;;;;;;;;;;5074942;28;20029;-71
2021/07/06 13:39:43;;;;;;;5.07;4.03;;;;;;;;;;5073815;28;20032;-71
2021/07/06 13:42:09;;;;;;;5.28;3.83;;;;;;;;;;5072550;28;20043;-72
2021/07/06 13:44:37;;;;;;;4.00;3.50;;;;;;;;;;5073537;28;20029;-71
2021/07/06 13:47:04;;;;;;;4.53;4.13;;;;;;;;;;5073401;28;20112;-71
2021/07/06 13:49:31;;;;;;;3.72;3.42;;;;;;;;;;5072597;28;20036;-71
2021/07/06 13:51:58;;;;;;;4.70;3.47;;;;;;;;;;5071434;28;20053;-71
2021/07/06 13:54:27;;;;;;;5.30;3.60;;;;;;;;;;5070965;28;20029;-71
2021/07/06 13:56:53;;;;;;;7.03;5.50;;;;;;;;;;5072839;28;20458;-72
2021/07/06 13:59:19;;;;;;;9.75;5.97;;;;;;;;;;5073435;28;20064;-72
2021/07/06 14:01:45;;;;;;;7.65;5.10;;;;;;;;;;5072735;28;20025;-70
2021/07/06 14:04:11;;;;;;;12.93;5.70;;;;;;;;;;5072660;28;20158;-72
2021/07/06 14:06:37;;;;;;;8.32;4.82;;;;;;;;;;5073161;28;20369;-70
2021/07/06 14:09:03;;;;;;;5.63;4.68;;;;;;;;;;5072582;28;20107;-70
2021/07/06 14:11:29;;;;;;;17.52;5.60;;;;;;;;;;5072487;28;20029;-70
2021/07/06 14:13:55;;;;;;;12.93;7.38;;;;;;;;;;5073336;28;20025;-70
2021/07/06 14:16:22;;;;;;;7.80;7.10;;;;;;;;;;5072481;28;20032;-69
2021/07/06 14:18:48;;;;;;;7.78;5.22;;;;;;;;;;5072580;28;20548;-70
2021/07/06 14:21:14;;;;;;;6.55;4.65;;;;;;;;;;5072027;28;20033;-70
2021/07/06 14:23:40;;;;;;;5.20;4.70;;;;;;;;;;5072842;28;20029;-70
2021/07/06 14:26:06;;;;;;;6.40;4.70;;;;;;;;;;5072738;28;20031;-70
2021/07/06 14:28:32;;;;;;;5.70;5.20;;;;;;;;;;5072928;28;20064;-71
2021/07/06 14:30:58;;;;;;;6.63;5.00;;;;;;;;;;5072810;28;20024;-70
2021/07/06 14:33:24;;;;;;;5.72;5.22;;;;;;;;;;5072002;28;20482;-70
2021/07/06 14:35:50;;;;;;;6.72;4.88;;;;;;;;;;5072693;28;20500;-71
2021/07/06 14:38:19;;;;;;;5.40;4.90;;;;;;;;;;5072431;28;20061;-71
2021/07/06 14:40:45;;;;;;;6.10;5.15;;;;;;;;;;5072954;28;20060;-70